sensor_id;sensor_type;location;lat;lon;timestamp;P1;durP1;ratioP1;P2;durP2;ratioP2
52962;SDS011;38827;53.024;6.596;2022-12-24T00:21:20;20.15;;;14.13;;
52962;SDS011;38827;53.024;6.596;2022-12-24T00:27:25;21.20;;;14.55;;
52962;SDS011;38827;53.024;6.596;2022-12-24T00:29:51;19.58;;;13.73;;
52962;SDS011;38827;53.024;6.596;2022-12-24T00:32:17;20.02;;;14.48;;
52962;SDS011;38827;53.024;6.596;2022-12-24T00:43:18;20.77;;;14.35;;
52962;SDS011;38827;53.024;6.596;2022-12-24T00:45:44;20.88;;;14.98;;
52962;SDS011;38827;53.024;6.596;2022-12-24T00:48:10;20.30;;;15.00;;
52962;SDS011;38827;53.024;6.596;2022-12-24T00:50:36;22.13;;;14.15;;
52962;SDS011;38827;53.024;6.596;2022-12-24T00:53:02;22.77;;;15.23;;
52962;SDS011;38827;53.024;6.596;2022-12-24T00:55:27;20.33;;;13.73;;
52962;SDS011;38827;53.024;6.596;2022-12-24T00:57:53;21.10;;;15.15;;
52962;SDS011;38827;53.024;6.596;2022-12-24T01:00:19;21.23;;;14.82;;
52962;SDS011;38827;53.024;6.596;2022-12-24T01:02:45;24.60;;;15.88;;
52962;SDS011;38827;53.024;6.596;2022-12-24T01:05:11;22.15;;;14.38;;
52962;SDS011;38827;53.024;6.596;2022-12-24T01:07:38;24.52;;;16.63;;
52962;SDS011;38827;53.024;6.596;2022-12-24T01:10:05;23.75;;;16.30;;
52962;SDS011;38827;53.024;6.596;2022-12-24T01:12:36;27.15;;;16.05;;
52962;SDS011;38827;53.024;6.596;2022-12-24T01:15:02;25.40;;;16.30;;
52962;SDS011;38827;53.024;6.596;2022-12-24T01:17:33;25.48;;;16.08;;
52962;SDS011;38827;53.024;6.596;2022-12-24T01:19:59;24.35;;;15.75;;
52962;SDS011;38827;53.024;6.596;2022-12-24T01:22:25;24.05;;;16.42;;
52962;SDS011;38827;53.024;6.596;2022-12-24T01:27:17;26.47;;;15.37;;
52962;SDS011;38827;53.024;6.596;2022-12-24T01:29:43;25.73;;;15.90;;
52962;SDS011;38827;53.024;6.596;2022-12-24T01:32:09;24.35;;;15.77;;
52962;SDS011;38827;53.024;6.596;2022-12-24T01:34:35;26.10;;;16.48;;
52962;SDS011;38827;53.024;6.596;2022-12-24T01:37:01;21.90;;;15.73;;
52962;SDS011;38827;53.024;6.596;2022-12-24T01:39:34;21.10;;;15.30;;
52962;SDS011;38827;53.024;6.596;2022-12-24T02:05:47;22.52;;;15.85;;
52962;SDS011;38827;53.024;6.596;2022-12-24T02:11:59;23.73;;;15.38;;
52962;SDS011;38827;53.024;6.596;2022-12-24T02:14:41;26.40;;;17.92;;
52962;SDS011;38827;53.024;6.596;2022-12-24T02:17:29;27.42;;;17.83;;
52962;SDS011;38827;53.024;6.596;2022-12-24T02:30:58;30.30;;;17.45;;
52962;SDS011;38827;53.024;6.596;2022-12-24T02:39:00;30.23;;;17.42;;
52962;SDS011;38827;53.024;6.596;2022-12-24T02:41:30;29.05;;;16.88;;
52962;SDS011;38827;53.024;6.596;2022-12-24T02:44:21;31.73;;;17.23;;
52962;SDS011;38827;53.024;6.596;2022-12-24T02:46:50;29.75;;;15.93;;
52962;SDS011;38827;53.024;6.596;2022-12-24T02:49:17;30.95;;;17.00;;
52962;SDS011;38827;53.024;6.596;2022-12-24T02:51:46;25.23;;;14.48;;
52962;SDS011;38827;53.024;6.596;2022-12-24T02:54:12;26.25;;;14.75;;
52962;SDS011;38827;53.024;6.596;2022-12-24T03:02:05;26.65;;;14.50;;
52962;SDS011;38827;53.024;6.596;2022-12-24T03:20:57;24.45;;;9.98;;
52962;SDS011;38827;53.024;6.596;2022-12-24T03:27:01;25.90;;;8.38;;
52962;SDS011;38827;53.024;6.596;2022-12-24T03:30:16;29.52;;;7.88;;
52962;SDS011;38827;53.024;6.596;2022-12-24T03:32:43;31.73;;;8.30;;
52962;SDS011;38827;53.024;6.596;2022-12-24T03:38:57;35.00;;;7.40;;
52962;SDS011;38827;53.024;6.596;2022-12-24T03:42:08;32.33;;;6.47;;
52962;SDS011;38827;53.024;6.596;2022-12-24T03:45:03;35.47;;;5.80;;
52962;SDS011;38827;53.024;6.596;2022-12-24T03:47:30;28.20;;;5.60;;
52962;SDS011;38827;53.024;6.596;2022-12-24T03:49:55;32.72;;;5.47;;
52962;SDS011;38827;53.024;6.596;2022-12-24T03:52:21;32.60;;;5.53;;
52962;SDS011;38827;53.024;6.596;2022-12-24T03:54:47;40.75;;;5.35;;
52962;SDS011;38827;53.024;6.596;2022-12-24T03:57:12;42.20;;;5.50;;
52962;SDS011;38827;53.024;6.596;2022-12-24T03:59:38;31.33;;;5.57;;
52962;SDS011;38827;53.024;6.596;2022-12-24T04:02:04;46.80;;;5.53;;
52962;SDS011;38827;53.024;6.596;2022-12-24T04:04:30;37.75;;;6.30;;
52962;SDS011;38827;53.024;6.596;2022-12-24T04:06:57;41.15;;;5.70;;
52962;SDS011;38827;53.024;6.596;2022-12-24T04:09:23;44.10;;;6.60;;
52962;SDS011;38827;53.024;6.596;2022-12-24T04:11:49;38.75;;;5.70;;
52962;SDS011;38827;53.024;6.596;2022-12-24T04:14:15;39.45;;;5.13;;
52962;SDS011;38827;53.024;6.596;2022-12-24T04:16:44;32.05;;;4.45;;
52962;SDS011;38827;53.024;6.596;2022-12-24T04:19:10;47.58;;;6.20;;
52962;SDS011;38827;53.024;6.596;2022-12-24T04:21:35;40.13;;;4.97;;
52962;SDS011;38827;53.024;6.596;2022-12-24T04:24:01;45.90;;;5.90;;
52962;SDS011;38827;53.024;6.596;2022-12-24T04:26:27;33.83;;;5.38;;
52962;SDS011;38827;53.024;6.596;2022-12-24T04:28:53;32.80;;;5.45;;
52962;SDS011;38827;53.024;6.596;2022-12-24T04:31:18;41.97;;;6.43;;
52962;SDS011;38827;53.024;6.596;2022-12-24T04:33:44;40.88;;;6.68;;
52962;SDS011;38827;53.024;6.596;2022-12-24T04:36:19;45.50;;;5.53;;
52962;SDS011;38827;53.024;6.596;2022-12-24T04:38:47;38.10;;;4.75;;
52962;SDS011;38827;53.024;6.596;2022-12-24T04:41:17;41.30;;;6.15;;
52962;SDS011;38827;53.024;6.596;2022-12-24T04:43:44;36.97;;;5.68;;
52962;SDS011;38827;53.024;6.596;2022-12-24T04:46:12;36.65;;;5.32;;
52962;SDS011;38827;53.024;6.596;2022-12-24T04:48:39;35.22;;;5.20;;
52962;SDS011;38827;53.024;6.596;2022-12-24T04:51:06;36.00;;;5.25;;
52962;SDS011;38827;53.024;6.596;2022-12-24T04:53:33;38.53;;;6.95;;
52962;SDS011;38827;53.024;6.596;2022-12-24T04:55:59;33.80;;;4.70;;
52962;SDS011;38827;53.024;6.596;2022-12-24T04:58:25;35.77;;;5.50;;
52962;SDS011;38827;53.024;6.596;2022-12-24T05:00:52;44.67;;;7.18;;
52962;SDS011;38827;53.024;6.596;2022-12-24T05:03:19;41.55;;;5.75;;
52962;SDS011;38827;53.024;6.596;2022-12-24T05:05:45;39.55;;;5.32;;
52962;SDS011;38827;53.024;6.596;2022-12-24T05:08:11;42.55;;;6.93;;
52962;SDS011;38827;53.024;6.596;2022-12-24T05:17:40;41.30;;;5.75;;
52962;SDS011;38827;53.024;6.596;2022-12-24T05:32:22;44.50;;;6.13;;
52962;SDS011;38827;53.024;6.596;2022-12-24T05:35:09;53.30;;;6.60;;
52962;SDS011;38827;53.024;6.596;2022-12-24T05:37:44;53.13;;;7.47;;
52962;SDS011;38827;53.024;6.596;2022-12-24T05:42:59;45.38;;;5.72;;
52962;SDS011;38827;53.024;6.596;2022-12-24T06:01:19;45.22;;;6.28;;
52962;SDS011;38827;53.024;6.596;2022-12-24T06:04:28;44.13;;;5.75;;
52962;SDS011;38827;53.024;6.596;2022-12-24T06:20:07;43.28;;;6.50;;
52962;SDS011;38827;53.024;6.596;2022-12-24T06:25:57;46.05;;;6.57;;
52962;SDS011;38827;53.024;6.596;2022-12-24T06:28:39;47.08;;;7.03;;
52962;SDS011;38827;53.024;6.596;2022-12-24T06:37:40;49.65;;;6.30;;
52962;SDS011;38827;53.024;6.596;2022-12-24T06:40:36;40.53;;;6.03;;
52962;SDS011;38827;53.024;6.596;2022-12-24T06:48:11;46.47;;;7.03;;
52962;SDS011;38827;53.024;6.596;2022-12-24T06:51:58;50.60;;;6.85;;
52962;SDS011;38827;53.024;6.596;2022-12-24T06:54:39;53.85;;;7.45;;
52962;SDS011;38827;53.024;6.596;2022-12-24T06:57:05;45.20;;;6.82;;
52962;SDS011;38827;53.024;6.596;2022-12-24T06:59:49;55.87;;;7.90;;
52962;SDS011;38827;53.024;6.596;2022-12-24T07:02:20;43.95;;;6.30;;
52962;SDS011;38827;53.024;6.596;2022-12-24T07:14:39;50.92;;;6.18;;
52962;SDS011;38827;53.024;6.596;2022-12-24T07:20:26;52.47;;;6.70;;
52962;SDS011;38827;53.024;6.596;2022-12-24T07:29:41;36.50;;;6.25;;
52962;SDS011;38827;53.024;6.596;2022-12-24T07:33:05;42.72;;;5.63;;
52962;SDS011;38827;53.024;6.596;2022-12-24T07:53:54;47.35;;;6.30;;
52962;SDS011;38827;53.024;6.596;2022-12-24T09:02:46;33.38;;;6.47;;
52962;SDS011;38827;53.024;6.596;2022-12-24T09:08:47;41.70;;;6.85;;
52962;SDS011;38827;53.024;6.596;2022-12-24T09:15:35;43.20;;;6.78;;
52962;SDS011;38827;53.024;6.596;2022-12-24T09:18:04;46.00;;;9.02;;
52962;SDS011;38827;53.024;6.596;2022-12-24T09:23:58;40.53;;;6.53;;
52962;SDS011;38827;53.024;6.596;2022-12-24T09:37:36;35.13;;;5.32;;
52962;SDS011;38827;53.024;6.596;2022-12-24T09:40:02;48.08;;;6.45;;
52962;SDS011;38827;53.024;6.596;2022-12-24T09:51:58;31.92;;;6.60;;
52962;SDS011;38827;53.024;6.596;2022-12-24T09:54:52;43.03;;;6.55;;
52962;SDS011;38827;53.024;6.596;2022-12-24T10:02:06;38.03;;;7.20;;
52962;SDS011;38827;53.024;6.596;2022-12-24T10:08:25;35.97;;;6.35;;
52962;SDS011;38827;53.024;6.596;2022-12-24T10:17:49;15.80;;;4.20;;
52962;SDS011;38827;53.024;6.596;2022-12-24T10:30:13;24.40;;;3.95;;
52962;SDS011;38827;53.024;6.596;2022-12-24T10:33:06;19.77;;;3.55;;
52962;SDS011;38827;53.024;6.596;2022-12-24T10:58:22;28.73;;;5.25;;
52962;SDS011;38827;53.024;6.596;2022-12-24T11:07:40;29.77;;;5.47;;
52962;SDS011;38827;53.024;6.596;2022-12-24T11:10:22;29.52;;;5.25;;
52962;SDS011;38827;53.024;6.596;2022-12-24T11:13:14;28.85;;;5.35;;
52962;SDS011;38827;53.024;6.596;2022-12-24T11:27:47;27.40;;;5.28;;
52962;SDS011;38827;53.024;6.596;2022-12-24T13:18:17;26.17;;;3.97;;
52962;SDS011;38827;53.024;6.596;2022-12-24T13:37:46;26.70;;;5.40;;
52962;SDS011;38827;53.024;6.596;2022-12-24T13:47:22;25.52;;;4.95;;
52962;SDS011;38827;53.024;6.596;2022-12-24T13:53:32;28.95;;;4.22;;
52962;SDS011;38827;53.024;6.596;2022-12-24T14:25:48;27.05;;;5.63;;
52962;SDS011;38827;53.024;6.596;2022-12-24T14:28:40;25.08;;;4.47;;
52962;SDS011;38827;53.024;6.596;2022-12-24T14:31:33;24.35;;;3.95;;
52962;SDS011;38827;53.024;6.596;2022-12-24T14:34:14;23.63;;;4.35;;
52962;SDS011;38827;53.024;6.596;2022-12-24T14:36:40;23.30;;;4.63;;
52962;SDS011;38827;53.024;6.596;2022-12-24T14:39:09;23.77;;;4.57;;
52962;SDS011;38827;53.024;6.596;2022-12-24T14:41:52;19.85;;;4.65;;
52962;SDS011;38827;53.024;6.596;2022-12-24T14:44:55;22.13;;;4.50;;
52962;SDS011;38827;53.024;6.596;2022-12-24T14:47:53;22.95;;;5.28;;
52962;SDS011;38827;53.024;6.596;2022-12-24T14:54:01;27.08;;;5.60;;
52962;SDS011;38827;53.024;6.596;2022-12-24T14:57:34;32.40;;;6.10;;
52962;SDS011;38827;53.024;6.596;2022-12-24T15:02:29;27.42;;;4.40;;
52962;SDS011;38827;53.024;6.596;2022-12-24T15:07:45;23.58;;;3.72;;
52962;SDS011;38827;53.024;6.596;2022-12-24T15:10:23;23.65;;;3.75;;
52962;SDS011;38827;53.024;6.596;2022-12-24T15:13:04;18.90;;;4.35;;
52962;SDS011;38827;53.024;6.596;2022-12-24T15:15:33;21.60;;;4.22;;
52962;SDS011;38827;53.024;6.596;2022-12-24T15:17:59;19.50;;;4.20;;
52962;SDS011;38827;53.024;6.596;2022-12-24T15:20:27;21.75;;;3.60;;
52962;SDS011;38827;53.024;6.596;2022-12-24T15:22:55;22.52;;;4.20;;
52962;SDS011;38827;53.024;6.596;2022-12-24T15:25:30;17.45;;;4.07;;
52962;SDS011;38827;53.024;6.596;2022-12-24T15:27:57;24.63;;;4.75;;
52962;SDS011;38827;53.024;6.596;2022-12-24T15:30:24;23.35;;;4.32;;
52962;SDS011;38827;53.024;6.596;2022-12-24T15:32:52;24.48;;;5.30;;
52962;SDS011;38827;53.024;6.596;2022-12-24T15:35:32;18.25;;;5.65;;
52962;SDS011;38827;53.024;6.596;2022-12-24T15:38:16;21.27;;;6.28;;
52962;SDS011;38827;53.024;6.596;2022-12-24T15:41:22;20.08;;;5.70;;
52962;SDS011;38827;53.024;6.596;2022-12-24T15:43:48;29.00;;;8.68;;
52962;SDS011;38827;53.024;6.596;2022-12-24T15:46:20;21.27;;;6.28;;
52962;SDS011;38827;53.024;6.596;2022-12-24T15:48:48;27.55;;;6.55;;
52962;SDS011;38827;53.024;6.596;2022-12-24T15:53:46;34.50;;;10.15;;
52962;SDS011;38827;53.024;6.596;2022-12-24T15:56:26;20.35;;;4.88;;
52962;SDS011;38827;53.024;6.596;2022-12-24T15:59:11;35.08;;;11.25;;
52962;SDS011;38827;53.024;6.596;2022-12-24T16:01:36;24.15;;;8.82;;
52962;SDS011;38827;53.024;6.596;2022-12-24T16:04:12;26.05;;;6.63;;
52962;SDS011;38827;53.024;6.596;2022-12-24T16:06:54;26.77;;;6.20;;
52962;SDS011;38827;53.024;6.596;2022-12-24T16:09:30;22.55;;;5.28;;
52962;SDS011;38827;53.024;6.596;2022-12-24T16:11:56;18.08;;;5.25;;
52962;SDS011;38827;53.024;6.596;2022-12-24T16:14:25;22.85;;;5.13;;
52962;SDS011;38827;53.024;6.596;2022-12-24T16:16:51;29.75;;;5.22;;
52962;SDS011;38827;53.024;6.596;2022-12-24T16:21:56;26.98;;;6.53;;
52962;SDS011;38827;53.024;6.596;2022-12-24T16:24:44;26.20;;;5.38;;
52962;SDS011;38827;53.024;6.596;2022-12-24T16:27:11;25.73;;;5.82;;
52962;SDS011;38827;53.024;6.596;2022-12-24T16:32:03;23.97;;;4.87;;
52962;SDS011;38827;53.024;6.596;2022-12-24T16:34:29;26.98;;;5.35;;
52962;SDS011;38827;53.024;6.596;2022-12-24T16:36:56;24.25;;;5.18;;
52962;SDS011;38827;53.024;6.596;2022-12-24T16:39:24;23.52;;;5.60;;
52962;SDS011;38827;53.024;6.596;2022-12-24T16:41:56;24.90;;;6.85;;
52962;SDS011;38827;53.024;6.596;2022-12-24T16:44:42;25.75;;;6.15;;
52962;SDS011;38827;53.024;6.596;2022-12-24T16:47:09;27.65;;;6.60;;
52962;SDS011;38827;53.024;6.596;2022-12-24T16:50:03;40.05;;;10.93;;
52962;SDS011;38827;53.024;6.596;2022-12-24T16:52:32;28.25;;;9.27;;
52962;SDS011;38827;53.024;6.596;2022-12-24T16:54:58;28.05;;;6.50;;
52962;SDS011;38827;53.024;6.596;2022-12-24T16:57:24;25.70;;;5.53;;
52962;SDS011;38827;53.024;6.596;2022-12-24T16:59:51;29.13;;;5.93;;
52962;SDS011;38827;53.024;6.596;2022-12-24T17:02:18;25.45;;;5.97;;
52962;SDS011;38827;53.024;6.596;2022-12-24T17:04:45;25.00;;;5.75;;
52962;SDS011;38827;53.024;6.596;2022-12-24T17:28:25;47.42;;;10.52;;
52962;SDS011;38827;53.024;6.596;2022-12-24T17:30:51;35.38;;;6.75;;
52962;SDS011;38827;53.024;6.596;2022-12-24T17:33:20;35.90;;;6.68;;
52962;SDS011;38827;53.024;6.596;2022-12-24T17:45:01;40.50;;;6.90;;
52962;SDS011;38827;53.024;6.596;2022-12-24T17:55:51;41.60;;;7.70;;
52962;SDS011;38827;53.024;6.596;2022-12-24T17:58:32;39.45;;;7.13;;
52962;SDS011;38827;53.024;6.596;2022-12-24T18:01:54;47.83;;;11.52;;
52962;SDS011;38827;53.024;6.596;2022-12-24T18:04:36;43.75;;;7.80;;
52962;SDS011;38827;53.024;6.596;2022-12-24T18:09:55;39.67;;;7.55;;
52962;SDS011;38827;53.024;6.596;2022-12-24T18:27:01;41.72;;;9.07;;
52962;SDS011;38827;53.024;6.596;2022-12-24T18:29:51;36.45;;;10.15;;
52962;SDS011;38827;53.024;6.596;2022-12-24T18:40:37;44.65;;;12.10;;
52962;SDS011;38827;53.024;6.596;2022-12-24T18:51:45;44.00;;;10.40;;
52962;SDS011;38827;53.024;6.596;2022-12-24T18:54:12;78.53;;;28.95;;
52962;SDS011;38827;53.024;6.596;2022-12-24T19:51:32;47.72;;;10.30;;
52962;SDS011;38827;53.024;6.596;2022-12-24T20:43:52;79.65;;;16.27;;
52962;SDS011;38827;53.024;6.596;2022-12-24T20:46:52;57.75;;;14.77;;
52962;SDS011;38827;53.024;6.596;2022-12-24T20:49:46;63.78;;;14.65;;
52962;SDS011;38827;53.024;6.596;2022-12-24T20:52:16;68.50;;;16.48;;
52962;SDS011;38827;53.024;6.596;2022-12-24T20:58:20;67.00;;;18.13;;
52962;SDS011;38827;53.024;6.596;2022-12-24T21:21:26;81.40;;;16.42;;
52962;SDS011;38827;53.024;6.596;2022-12-24T21:30:11;75.35;;;17.17;;
52962;SDS011;38827;53.024;6.596;2022-12-24T21:36:06;64.35;;;17.05;;
52962;SDS011;38827;53.024;6.596;2022-12-24T21:38:49;73.57;;;18.50;;
52962;SDS011;38827;53.024;6.596;2022-12-24T21:50:41;68.75;;;18.67;;
52962;SDS011;38827;53.024;6.596;2022-12-24T21:53:47;71.70;;;19.98;;
52962;SDS011;38827;53.024;6.596;2022-12-24T22:04:57;68.00;;;19.27;;
52962;SDS011;38827;53.024;6.596;2022-12-24T22:10:12;71.55;;;20.05;;
52962;SDS011;38827;53.024;6.596;2022-12-24T22:13:17;75.90;;;20.35;;
52962;SDS011;38827;53.024;6.596;2022-12-24T22:15:44;82.80;;;20.65;;
52962;SDS011;38827;53.024;6.596;2022-12-24T22:18:11;74.93;;;20.00;;
52962;SDS011;38827;53.024;6.596;2022-12-24T22:20:42;74.00;;;19.95;;
52962;SDS011;38827;53.024;6.596;2022-12-24T22:23:09;76.25;;;19.95;;
52962;SDS011;38827;53.024;6.596;2022-12-24T22:25:35;78.88;;;20.63;;
52962;SDS011;38827;53.024;6.596;2022-12-24T22:28:01;72.38;;;19.90;;
52962;SDS011;38827;53.024;6.596;2022-12-24T22:30:26;78.43;;;19.83;;
52962;SDS011;38827;53.024;6.596;2022-12-24T22:32:52;81.40;;;20.80;;
52962;SDS011;38827;53.024;6.596;2022-12-24T22:35:18;81.57;;;20.10;;
52962;SDS011;38827;53.024;6.596;2022-12-24T22:37:44;85.60;;;20.45;;
52962;SDS011;38827;53.024;6.596;2022-12-24T22:40:10;71.53;;;20.65;;
52962;SDS011;38827;53.024;6.596;2022-12-24T22:42:36;69.57;;;19.20;;
52962;SDS011;38827;53.024;6.596;2022-12-24T22:45:02;76.78;;;21.70;;
52962;SDS011;38827;53.024;6.596;2022-12-24T22:47:28;67.75;;;19.55;;
52962;SDS011;38827;53.024;6.596;2022-12-24T22:49:54;69.47;;;20.20;;
52962;SDS011;38827;53.024;6.596;2022-12-24T22:52:20;76.82;;;22.27;;
52962;SDS011;38827;53.024;6.596;2022-12-24T22:54:46;82.90;;;21.08;;
52962;SDS011;38827;53.024;6.596;2022-12-24T22:57:12;69.03;;;21.15;;
52962;SDS011;38827;53.024;6.596;2022-12-24T22:59:37;83.88;;;21.30;;
52962;SDS011;38827;53.024;6.596;2022-12-24T23:02:10;73.67;;;20.17;;
52962;SDS011;38827;53.024;6.596;2022-12-24T23:04:37;82.80;;;22.02;;
52962;SDS011;38827;53.024;6.596;2022-12-24T23:07:05;75.97;;;21.80;;
52962;SDS011;38827;53.024;6.596;2022-12-24T23:09:32;68.85;;;21.00;;
52962;SDS011;38827;53.024;6.596;2022-12-24T23:12:01;68.43;;;21.42;;
52962;SDS011;38827;53.024;6.596;2022-12-24T23:14:35;59.75;;;20.20;;
52962;SDS011;38827;53.024;6.596;2022-12-24T23:17:19;61.10;;;21.05;;
52962;SDS011;38827;53.024;6.596;2022-12-24T23:19:45;73.70;;;21.80;;
52962;SDS011;38827;53.024;6.596;2022-12-24T23:22:11;69.63;;;22.48;;
52962;SDS011;38827;53.024;6.596;2022-12-24T23:24:36;62.65;;;21.52;;
52962;SDS011;38827;53.024;6.596;2022-12-24T23:27:03;74.05;;;20.67;;
52962;SDS011;38827;53.024;6.596;2022-12-24T23:29:30;68.45;;;21.88;;
52962;SDS011;38827;53.024;6.596;2022-12-24T23:34:22;70.77;;;21.80;;
52962;SDS011;38827;53.024;6.596;2022-12-24T23:36:48;78.53;;;22.98;;
52962;SDS011;38827;53.024;6.596;2022-12-24T23:39:14;68.45;;;22.70;;
52962;SDS011;38827;53.024;6.596;2022-12-24T23:41:39;73.80;;;22.15;;
52962;SDS011;38827;53.024;6.596;2022-12-24T23:44:05;66.03;;;21.08;;
52962;SDS011;38827;53.024;6.596;2022-12-24T23:46:32;70.45;;;21.27;;
52962;SDS011;38827;53.024;6.596;2022-12-24T23:48:57;63.53;;;20.70;;
52962;SDS011;38827;53.024;6.596;2022-12-24T23:51:25;69.38;;;20.73;;
52962;SDS011;38827;53.024;6.596;2022-12-24T23:53:52;72.55;;;21.60;;
52962;SDS011;38827;53.024;6.596;2022-12-24T23:56:20;79.82;;;22.20;;
52962;SDS011;38827;53.024;6.596;2022-12-24T23:58:47;64.10;;;20.10;;
